Time;durP1;ratioP1;P1;durP2;ratioP2;P2;SDS_P1;SDS_P2;PMS_P1;PMS_P2;Temp;Humidity;BMP_temperature;BMP_pressure;BME280_temperature;BME280_humidity;BME280_pressure;Samples;Min_cycle;Max_cycle;Signal;HPM_P1;HPM_P2
2021/09/13 00:00:17;;;;;;;11.30;7.97;;;;;;;14.72;100.00;100843.78;5019611;28;20218;-76
2021/09/13 00:02:43;;;;;;;10.10;8.20;;;;;;;14.73;100.00;100848.13;5019556;28;20843;-77
2021/09/13 00:05:11;;;;;;;13.57;8.60;;;;;;;14.74;100.00;100849.84;5020546;28;20207;-76
2021/09/13 00:07:38;;;;;;;11.23;8.60;;;;;;;14.74;100.00;100847.22;5021770;28;20206;-76
2021/09/13 00:10:06;;;;;;;10.27;8.33;;;;;;;14.75;100.00;100851.53;5023364;28;20206;-76
2021/09/13 00:12:32;;;;;;;9.13;7.43;;;;;;;14.75;100.00;100855.00;5021877;28;20227;-77
2021/09/13 00:14:59;;;;;;;10.43;8.17;;;;;;;14.78;100.00;100851.44;5022151;28;20216;-77
2021/09/13 00:17:26;;;;;;;10.43;8.30;;;;;;;14.80;100.00;100861.88;5020622;28;20215;-76
2021/09/13 00:19:52;;;;;;;11.30;8.50;;;;;;;14.80;100.00;100854.84;5024045;28;20205;-76
2021/09/13 00:22:20;;;;;;;10.03;8.17;;;;;;;14.84;100.00;100851.16;5019600;28;20223;-76
2021/09/13 00:24:47;;;;;;;9.57;7.53;;;;;;;14.85;100.00;100852.03;5021948;28;20559;-77
2021/09/13 00:27:13;;;;;;;8.17;7.20;;;;;;;14.83;100.00;100852.09;5017695;28;20219;-76
2021/09/13 00:29:45;;;;;;;11.33;8.60;;;;;;;14.83;100.00;100857.34;5005645;28;20209;-76
2021/09/13 00:32:12;;;;;;;8.67;7.30;;;;;;;14.84;100.00;100852.94;5019462;28;20253;-77
2021/09/13 00:34:39;;;;;;;8.20;6.80;;;;;;;14.85;100.00;100849.41;5023139;28;20218;-77
2021/09/13 00:37:06;;;;;;;9.53;7.50;;;;;;;14.85;100.00;100859.91;5004732;28;20213;-76
2021/09/13 00:39:35;;;;;;;8.83;7.23;;;;;;;14.85;100.00;100865.16;5018494;28;20995;-77
2021/09/13 00:42:05;;;;;;;7.60;6.83;;;;;;;14.82;100.00;100863.50;5005329;28;20768;-77
2021/09/13 00:44:33;;;;;;;10.03;7.33;;;;;;;14.83;100.00;100865.22;5017700;28;20214;-77
2021/09/13 00:47:01;;;;;;;9.03;7.60;;;;;;;14.85;100.00;100866.00;5007006;28;20217;-76
2021/09/13 00:49:28;;;;;;;9.30;7.50;;;;;;;14.88;100.00;100865.00;5018777;28;20620;-77
2021/09/13 00:51:54;;;;;;;7.93;6.87;;;;;;;14.89;100.00;100864.13;5021664;28;20249;-77
2021/09/13 00:54:21;;;;;;;9.33;7.10;;;;;;;14.90;100.00;100861.44;5020715;28;20233;-77
2021/09/13 00:56:49;;;;;;;9.47;7.20;;;;;;;14.90;100.00;100858.81;5023237;28;20210;-76
2021/09/13 00:59:15;;;;;;;9.03;7.27;;;;;;;14.91;100.00;100860.50;5019547;28;20195;-77
2021/09/13 01:01:42;;;;;;;10.63;6.80;;;;;;;14.93;100.00;100858.69;5022524;28;20233;-77
2021/09/13 01:04:09;;;;;;;8.93;7.40;;;;;;;14.93;100.00;100852.56;5020879;28;20901;-76
2021/09/13 01:06:35;;;;;;;9.23;6.70;;;;;;;14.93;100.00;100856.06;5019424;28;20204;-77
2021/09/13 01:09:02;;;;;;;8.27;7.13;;;;;;;14.92;100.00;100849.09;5005378;28;20535;-77
2021/09/13 01:11:28;;;;;;;7.70;6.00;;;;;;;14.89;100.00;100841.31;5002216;28;20244;-77
2021/09/13 01:13:56;;;;;;;7.20;6.23;;;;;;;14.89;100.00;100856.25;5003597;28;20260;-77
2021/09/13 01:16:23;;;;;;;9.20;7.47;;;;;;;14.86;100.00;100849.34;5002264;28;20204;-77
2021/09/13 01:18:50;;;;;;;8.93;6.97;;;;;;;14.85;100.00;100849.41;5004830;28;20203;-76
2021/09/13 01:21:17;;;;;;;9.07;6.80;;;;;;;14.81;100.00;100851.31;5004552;28;20211;-77
2021/09/13 01:23:48;;;;;;;9.60;6.60;;;;;;;14.80;100.00;100849.59;5004426;28;20255;-76
2021/09/13 01:26:14;;;;;;;9.20;7.20;;;;;;;14.78;100.00;100846.19;5018213;28;20208;-77
2021/09/13 01:28:41;;;;;;;7.30;6.07;;;;;;;14.77;100.00;100850.56;5006135;28;20221;-77
2021/09/13 01:31:11;;;;;;;9.33;6.73;;;;;;;14.77;100.00;100847.06;5003992;28;20946;-77
2021/09/13 01:33:43;;;;;;;9.70;6.87;;;;;;;14.75;100.00;100843.66;4999319;28;20293;-77
2021/09/13 01:36:13;;;;;;;8.60;6.60;;;;;;;14.72;100.00;100842.03;5021674;28;20218;-77
2021/09/13 01:38:40;;;;;;;8.73;6.90;;;;;;;14.68;100.00;100843.03;5019935;28;20203;-77
2021/09/13 01:41:10;;;;;;;8.33;6.50;;;;;;;14.69;100.00;100846.56;5003593;28;20676;-76
2021/09/13 01:43:38;;;;;;;7.83;6.77;;;;;;;14.65;100.00;100845.81;5002078;28;20241;-77
2021/09/13 01:46:49;;;;;;;9.27;6.87;;;;;;;14.65;100.00;100842.31;5019612;28;20237;-76
2021/09/13 01:49:16;;;;;;;11.43;7.27;;;;;;;14.65;100.00;100842.31;5018613;28;20206;-77
2021/09/13 01:51:43;;;;;;;9.13;6.60;;;;;;;14.64;100.00;100846.72;5003898;28;20248;-77
2021/09/13 01:54:10;;;;;;;10.50;7.30;;;;;;;14.64;100.00;100840.63;5019501;28;20621;-76
2021/09/13 01:56:38;;;;;;;10.67;7.00;;;;;;;14.62;100.00;100842.47;5005291;28;20229;-77
2021/09/13 01:59:09;;;;;;;8.20;6.80;;;;;;;14.62;100.00;100847.72;5018615;28;20281;-77
2021/09/13 02:01:36;;;;;;;11.13;7.57;;;;;;;14.62;100.00;100848.56;5001616;28;20840;-75
2021/09/13 02:04:03;;;;;;;9.97;7.27;;;;;;;14.62;100.00;100853.81;5005133;28;20245;-75
2021/09/13 02:06:31;;;;;;;9.23;7.30;;;;;;;14.64;100.00;100857.22;5019362;28;20231;-75
2021/09/13 02:08:58;;;;;;;9.80;7.80;;;;;;;14.64;100.00;100856.38;5007180;28;20205;-75
2021/09/13 02:11:24;;;;;;;10.40;7.50;;;;;;;14.62;100.00;100861.69;5003063;28;20218;-75
2021/09/13 02:13:54;;;;;;;11.60;7.27;;;;;;;14.61;100.00;100865.19;5020849;28;20231;-75
2021/09/13 02:16:20;;;;;;;9.87;7.70;;;;;;;14.64;100.00;100862.47;5001779;28;20255;-75
2021/09/13 02:18:47;;;;;;;9.77;8.30;;;;;;;14.65;100.00;100860.69;5020816;28;20211;-75
2021/09/13 02:21:15;;;;;;;10.00;7.93;;;;;;;14.63;100.00;100855.50;5002208;28;20257;-75
2021/09/13 02:23:42;;;;;;;9.87;8.00;;;;;;;14.64;100.00;100859.00;4997946;28;20318;-75
2021/09/13 02:26:12;;;;;;;10.03;7.87;;;;;;;14.57;100.00;100855.72;4999719;28;20196;-75
2021/09/13 02:28:39;;;;;;;10.03;7.57;;;;;;;14.55;100.00;100858.41;5019519;28;20698;-75
2021/09/13 02:31:08;;;;;;;9.57;7.53;;;;;;;14.53;100.00;100864.63;5002348;28;20256;-75
2021/09/13 02:33:34;;;;;;;11.20;7.77;;;;;;;14.52;100.00;100866.38;5002547;28;20222;-75
2021/09/13 02:36:02;;;;;;;10.47;6.93;;;;;;;14.50;100.00;100867.38;5004618;28;20204;-75
2021/09/13 02:38:28;;;;;;;8.70;7.03;;;;;;;14.45;100.00;100857.03;5001800;28;20243;-75
2021/09/13 02:40:55;;;;;;;8.87;7.30;;;;;;;14.47;100.00;100862.22;5007597;28;20214;-75
2021/09/13 02:43:22;;;;;;;9.20;7.20;;;;;;;14.46;100.00;100860.50;5003152;28;20231;-75
2021/09/13 02:45:49;;;;;;;8.77;7.03;;;;;;;14.40;100.00;100858.97;5004750;28;20301;-75
2021/09/13 02:48:16;;;;;;;7.97;7.17;;;;;;;14.36;100.00;100862.66;5005985;28;20208;-75
2021/09/13 02:50:43;;;;;;;10.80;7.97;;;;;;;14.31;100.00;100864.59;5007578;28;20215;-75
2021/09/13 02:53:10;;;;;;;9.73;7.10;;;;;;;14.28;100.00;100865.56;5005962;28;20269;-75
2021/09/13 02:55:37;;;;;;;9.57;7.60;;;;;;;14.26;100.00;100874.38;5003331;28;20204;-75
2021/09/13 02:58:04;;;;;;;10.50;7.80;;;;;;;14.27;100.00;100868.25;5000899;28;20245;-75
2021/09/13 03:00:34;;;;;;;9.87;7.07;;;;;;;14.24;100.00;100863.94;5007194;28;20210;-75
2021/09/13 03:03:04;;;;;;;10.67;7.33;;;;;;;14.20;100.00;100865.84;5006016;28;22780;-75
2021/09/13 03:05:32;;;;;;;11.30;8.47;;;;;;;14.18;100.00;100865.03;5006403;28;20203;-75
2021/09/13 03:08:05;;;;;;;10.37;8.40;;;;;;;14.16;100.00;100874.75;5007738;28;20209;-75
2021/09/13 03:10:31;;;;;;;9.33;7.63;;;;;;;14.14;100.00;100868.72;5004705;28;20271;-75
2021/09/13 03:12:59;;;;;;;9.60;7.40;;;;;;;14.15;100.00;100877.41;5007604;28;20229;-75
2021/09/13 03:15:25;;;;;;;8.03;6.90;;;;;;;14.15;100.00;100869.56;5006489;28;20236;-75
2021/09/13 03:17:54;;;;;;;13.23;8.17;;;;;;;14.16;100.00;100871.28;4998449;28;20211;-75
2021/09/13 03:20:22;;;;;;;13.10;8.17;;;;;;;14.14;100.00;100879.19;5006647;28;20575;-75
2021/09/13 03:22:50;;;;;;;10.40;7.83;;;;;;;14.14;100.00;100875.69;5004997;28;20306;-75
2021/09/13 03:25:18;;;;;;;11.17;8.47;;;;;;;14.15;100.00;100875.63;5005695;28;20236;-75
2021/09/13 03:27:45;;;;;;;14.87;8.77;;;;;;;14.17;100.00;100872.97;5005234;28;20567;-75
2021/09/13 03:30:12;;;;;;;12.33;9.50;;;;;;;14.14;100.00;100873.94;5004169;28;20295;-75
2021/09/13 03:32:42;;;;;;;10.90;8.53;;;;;;;14.15;100.00;100869.56;5006259;28;20234;-75
2021/09/13 03:35:09;;;;;;;12.27;8.47;;;;;;;14.12;100.00;100874.91;5020922;28;20263;-75
2021/09/13 03:37:37;;;;;;;10.47;8.53;;;;;;;14.10;100.00;100876.72;5006688;28;20212;-75
2021/09/13 03:40:08;;;;;;;10.10;8.53;;;;;;;14.07;100.00;100876.84;5016362;28;20218;-75
2021/09/13 03:42:35;;;;;;;11.87;8.77;;;;;;;14.05;100.00;100873.41;5020728;28;20270;-75
2021/09/13 03:45:01;;;;;;;12.63;8.03;;;;;;;14.06;100.00;100876.00;5023731;28;20201;-75
2021/09/13 03:47:50;;;;;;;9.27;7.50;;;;;;;14.07;100.00;100876.84;5020088;28;20685;-75
2021/09/13 03:50:17;;;;;;;10.10;8.57;;;;;;;14.07;100.00;100877.72;5014816;28;20208;-75
2021/09/13 03:52:45;;;;;;;10.10;8.10;;;;;;;14.07;100.00;100879.47;5005257;28;20225;-74
2021/09/13 03:55:13;;;;;;;11.60;8.13;;;;;;;14.07;100.00;100872.47;4998693;28;20244;-75
2021/09/13 03:57:39;;;;;;;10.83;8.20;;;;;;;14.03;100.00;100876.09;5005777;28;20200;-75
2021/09/13 04:00:07;;;;;;;11.90;8.57;;;;;;;14.04;100.00;100871.72;5022637;28;20210;-75
2021/09/13 04:02:42;;;;;;;12.03;9.10;;;;;;;14.02;100.00;100879.66;5021523;28;20232;-75
2021/09/13 04:05:13;;;;;;;13.20;9.60;;;;;;;13.99;100.00;100879.75;5020644;28;20200;-75
2021/09/13 04:08:01;;;;;;;11.60;9.00;;;;;;;13.95;100.00;100875.53;5004411;28;20299;-75
2021/09/13 04:10:46;;;;;;;10.47;8.33;;;;;;;13.97;100.00;100886.81;4998208;28;21897;-75
2021/09/13 04:13:26;;;;;;;13.23;8.83;;;;;;;14.00;100.00;100884.94;5005864;28;20245;-75
2021/09/13 04:16:05;;;;;;;10.73;7.90;;;;;;;14.06;100.00;100883.84;5007818;28;20589;-75
2021/09/13 04:18:57;;;;;;;10.40;7.67;;;;;;;14.04;100.00;100882.22;5009321;28;20384;-75
2021/09/13 04:21:51;;;;;;;10.80;8.07;;;;;;;14.07;100.00;100875.09;5024089;28;20209;-75
2021/09/13 04:24:33;;;;;;;10.80;8.13;;;;;;;14.04;100.00;100882.22;5004016;28;20251;-75
2021/09/13 04:27:21;;;;;;;10.63;8.50;;;;;;;14.06;100.00;100881.22;5007993;28;20209;-75
2021/09/13 04:30:08;;;;;;;10.13;7.93;;;;;;;14.05;100.00;100884.75;5024432;28;20200;-75
2021/09/13 04:32:53;;;;;;;11.77;8.77;;;;;;;14.06;100.00;100883.84;5016194;28;20265;-75
2021/09/13 04:35:38;;;;;;;12.33;8.40;;;;;;;14.07;100.00;100884.69;5024872;28;20222;-75
2021/09/13 04:38:27;;;;;;;12.00;8.77;;;;;;;14.05;100.00;100876.88;5004615;28;20211;-75
2021/09/13 04:41:21;;;;;;;12.17;8.83;;;;;;;14.08;100.00;100876.78;5003210;28;20205;-75
2021/09/13 04:44:07;;;;;;;13.63;9.70;;;;;;;14.09;100.00;100886.38;5004555;28;20208;-75
2021/09/13 04:46:52;;;;;;;13.63;9.00;;;;;;;14.13;100.00;100884.50;5018849;28;20216;-75
2021/09/13 04:49:33;;;;;;;13.77;9.63;;;;;;;14.16;100.00;100885.22;5012583;28;20212;-75
2021/09/13 04:52:00;;;;;;;13.57;10.63;;;;;;;14.20;100.00;100885.97;5017817;28;20227;-75
2021/09/13 04:54:31;;;;;;;12.63;9.07;;;;;;;14.27;100.00;100882.19;5006406;28;20714;-75
2021/09/13 04:56:59;;;;;;;15.13;9.80;;;;;;;14.27;100.00;100890.06;5004350;28;20206;-75
2021/09/13 04:59:27;;;;;;;12.70;9.23;;;;;;;14.29;100.00;100893.50;5006303;28;20218;-75
2021/09/13 05:01:54;;;;;;;12.63;9.53;;;;;;;14.31;100.00;100891.66;5002633;28;20226;-75
2021/09/13 05:04:24;;;;;;;17.33;10.60;;;;;;;14.35;100.00;100887.16;5002190;28;20211;-75
2021/09/13 05:06:51;;;;;;;10.73;8.53;;;;;;;14.38;100.00;100889.66;5004535;28;20643;-75
2021/09/13 05:09:18;;;;;;;13.97;10.17;;;;;;;14.41;100.00;100889.56;5004346;28;20207;-75
2021/09/13 05:11:44;;;;;;;15.07;9.93;;;;;;;14.43;100.00;100879.84;5006683;28;20233;-75
2021/09/13 05:14:15;;;;;;;13.37;8.93;;;;;;;14.49;100.00;100890.13;4999487;28;20808;-75
2021/09/13 05:16:42;;;;;;;12.57;9.87;;;;;;;14.49;100.00;100890.13;5008035;28;20291;-75
2021/09/13 05:19:09;;;;;;;11.47;8.97;;;;;;;14.54;100.00;100889.94;4998944;28;20204;-75
2021/09/13 05:21:38;;;;;;;13.33;9.43;;;;;;;14.59;100.00;100890.66;5022422;28;20225;-75
2021/09/13 05:24:06;;;;;;;12.40;9.50;;;;;;;14.62;100.00;100890.53;5002595;28;20219;-75
2021/09/13 05:26:32;;;;;;;12.77;9.07;;;;;;;14.68;100.00;100897.31;5007043;28;20204;-75
2021/09/13 05:28:59;;;;;;;12.27;10.10;;;;;;;14.69;100.00;100894.63;5004354;28;20227;-75
2021/09/13 05:31:26;;;;;;;13.83;10.07;;;;;;;14.73;100.00;100901.47;5003875;28;20627;-75
2021/09/13 05:33:54;;;;;;;14.03;10.30;;;;;;;14.76;100.00;100903.13;5022789;28;20262;-75
2021/09/13 05:36:20;;;;;;;14.83;10.27;;;;;;;14.81;100.00;100911.69;5002189;28;20204;-75
2021/09/13 05:38:47;;;;;;;13.27;10.00;;;;;;;14.85;100.00;100915.88;5007922;28;20264;-75
2021/09/13 05:41:37;;;;;;;14.00;10.37;;;;;;;14.89;100.00;100922.72;5001874;28;20214;-75
2021/09/13 05:44:05;;;;;;;15.63;10.43;;;;;;;14.92;100.00;100914.72;5005173;28;20896;-75
2021/09/13 05:46:32;;;;;;;15.03;10.83;;;;;;;14.94;100.00;100922.53;5004731;28;20214;-75
2021/09/13 05:49:02;;;;;;;12.10;9.20;;;;;;;14.98;100.00;100921.50;5002187;28;20200;-75
2021/09/13 05:51:28;;;;;;;15.43;10.33;;;;;;;15.02;100.00;100919.59;5002791;28;20217;-75
2021/09/13 05:53:55;;;;;;;13.77;10.17;;;;;;;15.08;100.00;100909.72;5004016;28;20231;-75
2021/09/13 05:56:21;;;;;;;17.80;12.37;;;;;;;15.15;100.00;100916.41;5021588;28;20210;-75
2021/09/13 05:58:47;;;;;;;14.83;11.53;;;;;;;15.28;100.00;100921.16;5004745;28;20683;-75
2021/09/13 06:01:14;;;;;;;14.90;11.67;;;;;;;15.36;100.00;100918.25;4999846;28;20293;-75
2021/09/13 06:03:41;;;;;;;15.70;12.07;;;;;;;15.40;100.00;100927.69;4998066;28;20228;-75
2021/09/13 06:06:16;;;;;;;14.30;10.90;;;;;;;15.39;100.00;100926.84;5004249;28;20207;-75
2021/09/13 06:08:43;;;;;;;15.10;10.30;;;;;;;15.38;100.00;100924.28;4992114;28;20208;-75
2021/09/13 06:11:09;;;;;;;14.37;10.83;;;;;;;15.34;100.00;100924.41;5022879;28;20242;-75
2021/09/13 06:13:40;;;;;;;15.60;10.67;;;;;;;15.33;100.00;100919.22;5003388;28;20220;-75
2021/09/13 06:16:08;;;;;;;14.17;10.13;;;;;;;15.33;100.00;100929.72;5004582;28;20570;-75
2021/09/13 06:18:37;;;;;;;13.33;10.00;;;;;;;15.37;100.00;100928.66;5014936;28;20261;-75
2021/09/13 06:21:04;;;;;;;13.77;10.40;;;;;;;15.48;100.00;100929.09;5006899;28;20208;-75
2021/09/13 06:23:32;;;;;;;15.13;10.93;;;;;;;15.52;100.00;100937.69;5008214;28;20895;-75
2021/09/13 06:25:58;;;;;;;16.67;11.30;;;;;;;15.63;100.00;100932.84;5006478;28;20699;-75
2021/09/13 06:28:25;;;;;;;12.63;10.20;;;;;;;15.63;100.00;100927.56;5007073;28;20267;-75
2021/09/13 06:30:52;;;;;;;12.43;9.93;;;;;;;15.65;100.00;100933.63;5007456;28;20243;-75
2021/09/13 06:33:20;;;;;;;13.50;9.37;;;;;;;15.65;100.00;100927.53;5007538;28;20234;-75
2021/09/13 06:35:46;;;;;;;11.63;9.30;;;;;;;15.65;100.00;100928.38;5005978;28;20204;-75
2021/09/13 06:38:20;;;;;;;11.53;9.77;;;;;;;15.69;100.00;100929.13;5009547;28;20203;-75
2021/09/13 06:40:48;;;;;;;13.70;9.87;;;;;;;15.75;100.00;100928.03;5021198;28;20262;-75
2021/09/13 06:43:16;;;;;;;12.10;10.53;;;;;;;15.84;100.00;100943.41;5025646;28;20211;-75
2021/09/13 06:45:56;;;;;;;14.97;10.27;;;;;;;15.94;100.00;100946.50;5006352;28;20208;-75
2021/09/13 06:48:23;;;;;;;15.03;10.43;;;;;;;16.00;100.00;100948.84;5008227;28;21025;-75
2021/09/13 06:50:49;;;;;;;15.57;9.40;;;;;;;16.13;100.00;100947.41;5007010;28;20218;-75
2021/09/13 06:53:16;;;;;;;16.03;10.27;;;;;;;16.21;100.00;100952.31;5024347;28;20220;-75
2021/09/13 06:55:42;;;;;;;14.30;9.70;;;;;;;16.16;100.00;100952.50;5007819;28;20255;-75
2021/09/13 06:58:10;;;;;;;16.80;9.47;;;;;;;16.19;100.00;100954.16;5028777;28;20200;-75
2021/09/13 07:00:38;;;;;;;14.43;8.87;;;;;;;16.19;100.00;100962.06;5023609;28;20565;-75
2021/09/13 07:03:04;;;;;;;16.37;9.17;;;;;;;16.19;100.00;100962.88;5024274;28;21870;-75
2021/09/13 07:05:31;;;;;;;13.67;9.53;;;;;;;16.26;100.00;100964.31;5024667;28;20200;-75
2021/09/13 07:07:57;;;;;;;11.97;9.93;;;;;;;16.39;100.00;100962.03;5023605;28;20589;-75
2021/09/13 07:10:23;;;;;;;12.30;9.00;;;;;;;16.44;100.00;100965.28;5026429;28;20195;-75
2021/09/13 07:12:50;;;;;;;12.77;10.03;;;;;;;16.59;100.00;100961.09;5027740;28;20809;-75
2021/09/13 07:15:18;;;;;;;10.27;8.47;;;;;;;16.64;100.00;100974.06;5029503;28;20238;-75
2021/09/13 07:17:46;;;;;;;13.40;8.80;;;;;;;16.64;100.00;100977.53;5023635;28;20290;-75
2021/09/13 07:20:13;;;;;;;10.43;8.30;;;;;;;16.71;100.00;100975.50;5025145;28;20227;-75
2021/09/13 07:22:40;;;;;;;9.70;7.60;;;;;;;16.71;100.00;100980.75;5022685;28;20648;-75
2021/09/13 07:25:07;;;;;;;9.73;7.23;;;;;;;16.75;100.00;100984.09;5025659;28;20208;-75
2021/09/13 07:27:35;;;;;;;9.33;6.90;;;;;;;16.83;100.00;100992.47;5023553;28;20209;-75
2021/09/13 07:30:02;;;;;;;9.40;6.97;;;;;;;16.98;100.00;100978.63;5024812;28;20234;-75
2021/09/13 07:32:30;;;;;;;10.67;6.97;;;;;;;17.08;100.00;100980.81;5021052;28;20215;-75
2021/09/13 07:34:56;;;;;;;7.63;6.30;;;;;;;17.12;99.05;100987.66;5022906;28;20316;-75
2021/09/13 07:37:22;;;;;;;6.13;5.53;;;;;;;17.23;100.00;100988.84;5021601;28;20200;-75
2021/09/13 07:39:49;;;;;;;7.60;5.37;;;;;;;17.29;96.79;100998.25;5020611;28;20790;-75
2021/09/13 07:42:15;;;;;;;5.47;4.90;;;;;;;17.23;92.79;101003.81;5024716;28;20318;-75
2021/09/13 07:44:42;;;;;;;6.10;4.33;;;;;;;17.17;92.40;101002.31;5023109;28;20212;-75
2021/09/13 07:47:09;;;;;;;7.57;4.80;;;;;;;17.13;92.71;101005.16;5024694;28;20207;-75
2021/09/13 07:49:37;;;;;;;5.60;4.50;;;;;;;17.10;93.93;101002.69;5021419;28;20215;-75
2021/09/13 07:52:03;;;;;;;5.10;4.57;;;;;;;17.10;92.31;101002.69;5023126;28;20239;-75
2021/09/13 07:54:30;;;;;;;4.43;3.27;;;;;;;17.05;87.46;101009.97;5006449;28;20215;-75
2021/09/13 07:56:57;;;;;;;4.07;3.50;;;;;;;17.07;88.98;101008.09;5026363;28;20211;-75
2021/09/13 07:59:23;;;;;;;4.77;3.40;;;;;;;17.03;89.98;101013.50;5023510;28;20876;-75
2021/09/13 08:01:49;;;;;;;4.43;4.00;;;;;;;17.08;91.32;101015.94;5018516;28;20588;-75
2021/09/13 08:04:16;;;;;;;5.77;3.50;;;;;;;17.01;90.10;101023.28;5021487;28;20211;-75
2021/09/13 08:06:44;;;;;;;4.50;3.67;;;;;;;17.06;91.26;101009.88;5026095;28;20212;-75
2021/09/13 08:09:10;;;;;;;4.23;3.50;;;;;;;17.12;91.78;101019.28;5019805;28;20200;-75
2021/09/13 08:11:37;;;;;;;4.10;3.50;;;;;;;17.15;90.43;101022.63;5024468;28;20211;-75
2021/09/13 08:14:04;;;;;;;5.13;3.07;;;;;;;17.23;92.40;101023.09;5022073;28;20215;-75
2021/09/13 08:16:31;;;;;;;4.97;3.30;;;;;;;17.35;90.33;101020.81;5024358;28;20200;-75
2021/09/13 08:19:00;;;;;;;4.17;3.47;;;;;;;17.50;90.35;101024.47;5022843;28;20204;-75
2021/09/13 08:21:27;;;;;;;4.27;3.37;;;;;;;17.51;86.32;101031.47;5021657;28;20199;-75
2021/09/13 08:23:57;;;;;;;4.33;2.90;;;;;;;17.60;86.53;101031.84;5023371;28;20693;-75
2021/09/13 08:26:23;;;;;;;4.50;3.00;;;;;;;17.62;84.65;101039.69;5023770;28;20298;-75
2021/09/13 08:28:50;;;;;;;4.57;2.90;;;;;;;17.60;83.35;101050.31;5024109;28;20199;-75
2021/09/13 08:31:16;;;;;;;2.87;2.57;;;;;;;17.70;84.10;101045.44;5018501;28;20216;-75
2021/09/13 08:33:43;;;;;;;4.47;3.07;;;;;;;17.76;82.17;101044.28;5024261;28;20333;-75
2021/09/13 08:36:09;;;;;;;3.30;2.60;;;;;;;17.82;84.03;101041.38;5022054;28;20212;-75
2021/09/13 08:38:36;;;;;;;4.63;2.80;;;;;;;17.89;86.49;101037.53;5027802;28;20298;-75
2021/09/13 08:41:04;;;;;;;2.63;2.43;;;;;;;18.01;82.07;101046.59;5020117;28;20212;-75
2021/09/13 08:43:30;;;;;;;3.30;2.60;;;;;;;18.06;83.87;101049.84;5024357;28;20801;-75
2021/09/13 08:46:00;;;;;;;4.30;2.87;;;;;;;18.09;84.54;101054.13;5019495;28;20223;-75
2021/09/13 08:48:30;;;;;;;3.03;2.50;;;;;;;18.19;84.28;101050.09;5022686;28;20218;-75
2021/09/13 08:53:45;;;;;;;2.80;2.00;;;;;;;18.26;79.13;101059.41;5021447;28;20223;-75
2021/09/13 08:56:15;;;;;;;3.80;2.60;;;;;;;18.31;78.70;101064.41;5024667;28;20208;-75
2021/09/13 08:58:42;;;;;;;4.13;2.40;;;;;;;18.35;79.53;101068.63;5013517;28;20574;-75
2021/09/13 09:01:11;;;;;;;4.53;2.40;;;;;;;18.24;76.55;101070.94;5020376;28;20287;-75
2021/09/13 09:03:39;;;;;;;3.93;2.40;;;;;;;18.24;75.36;101074.47;5011995;28;20231;-75
2021/09/13 09:06:06;;;;;;;3.63;2.27;;;;;;;18.32;77.50;101066.97;5021899;28;20207;-75
2021/09/13 09:08:36;;;;;;;3.00;2.40;;;;;;;18.44;79.09;101065.50;5022197;28;20250;-75
2021/09/13 09:11:05;;;;;;;3.00;2.70;;;;;;;18.51;80.15;101058.13;5022077;28;20207;-75
2021/09/13 09:13:40;;;;;;;2.87;2.43;;;;;;;18.66;78.82;101069.66;5014461;28;20227;-75
2021/09/13 09:16:07;;;;;;;5.07;2.50;;;;;;;18.72;77.62;101070.19;5022533;28;20310;-75
2021/09/13 09:18:39;;;;;;;3.10;2.47;;;;;;;18.74;77.24;101068.31;5022958;28;20208;-75
2021/09/13 09:21:05;;;;;;;4.17;2.47;;;;;;;18.88;77.24;101072.88;5021004;28;20226;-75
2021/09/13 09:23:33;;;;;;;4.57;2.60;;;;;;;19.03;77.15;101072.97;5032617;28;20237;-75
2021/09/13 09:26:11;;;;;;;2.67;2.47;;;;;;;19.10;75.68;101077.88;5019005;28;20813;-75
2021/09/13 09:28:39;;;;;;;2.57;2.17;;;;;;;19.12;77.48;101072.50;5027452;28;20212;-75
2021/09/13 09:31:05;;;;;;;4.03;2.67;;;;;;;19.20;75.81;101080.00;5018941;28;20291;-75
2021/09/13 09:33:31;;;;;;;6.77;2.60;;;;;;;19.22;75.27;101078.97;5022855;28;20224;-75
2021/09/13 09:35:59;;;;;;;3.10;2.60;;;;;;;19.29;77.46;101075.06;5021488;28;20208;-75
2021/09/13 09:38:30;;;;;;;3.93;2.50;;;;;;;19.29;77.90;101071.56;5014967;28;20626;-75
2021/09/13 09:41:09;;;;;;;3.40;2.57;;;;;;;19.24;75.90;101070.94;5022044;28;20214;-75
2021/09/13 09:43:51;;;;;;;4.97;3.00;;;;;;;19.31;75.26;101080.25;5018180;28;20228;-75
2021/09/13 09:46:20;;;;;;;3.13;2.50;;;;;;;19.42;75.79;101084.97;5024208;28;20272;-75
2021/09/13 09:48:47;;;;;;;3.07;2.67;;;;;;;19.52;75.34;101075.53;5021343;28;20204;-75
2021/09/13 09:51:28;;;;;;;3.47;2.80;;;;;;;19.62;78.01;101070.59;5016874;28;20250;-75
2021/09/13 09:53:54;;;;;;;4.70;2.80;;;;;;;19.82;77.47;101077.41;5020203;28;20216;-75
2021/09/13 09:56:21;;;;;;;4.57;3.07;;;;;;;19.81;77.25;101073.91;5020583;28;20215;-75
2021/09/13 09:58:59;;;;;;;3.60;3.00;;;;;;;19.76;76.71;101068.03;5023453;28;20223;-75
2021/09/13 10:01:38;;;;;;;4.97;3.03;;;;;;;19.92;75.82;101075.94;5020084;28;20208;-75
2021/09/13 10:04:20;;;;;;;3.87;3.13;;;;;;;19.97;74.17;101076.53;5024673;28;20285;-75
2021/09/13 10:06:49;;;;;;;7.07;3.70;;;;;;;20.00;75.21;101067.56;5022027;28;20204;-75
2021/09/13 10:09:16;;;;;;;3.13;2.60;;;;;;;20.03;75.17;101076.19;5023335;28;20830;-75
2021/09/13 10:11:44;;;;;;;4.60;2.97;;;;;;;20.07;75.12;101073.34;5026668;28;20329;-75
2021/09/13 10:14:13;;;;;;;4.63;2.90;;;;;;;20.20;73.27;101079.63;5023609;28;20235;-75
2021/09/13 10:16:41;;;;;;;3.77;2.80;;;;;;;20.29;74.31;101083.50;5022632;28;20857;-75
2021/09/13 10:19:08;;;;;;;3.20;2.80;;;;;;;20.38;73.59;101088.25;5026319;28;20218;-75
2021/09/13 10:21:35;;;;;;;5.33;3.10;;;;;;;20.50;73.33;101082.22;5024952;28;20195;-75
2021/09/13 10:24:05;;;;;;;3.67;3.00;;;;;;;20.48;72.42;101085.91;5018010;28;20620;-75
2021/09/13 10:26:32;;;;;;;4.17;3.10;;;;;;;20.50;72.02;101090.16;5025546;28;20781;-75
2021/09/13 10:29:28;;;;;;;4.20;3.13;;;;;;;20.53;72.54;101086.50;5017719;28;20212;-75
2021/09/13 10:32:04;;;;;;;3.43;2.87;;;;;;;20.71;73.10;101079.25;5024223;28;20215;-75
2021/09/13 10:34:33;;;;;;;5.00;2.90;;;;;;;20.69;71.83;101078.50;5021668;28;20250;-75
2021/09/13 10:37:06;;;;;;;3.70;2.40;;;;;;;20.77;72.08;101073.56;5028797;28;20263;-75
2021/09/13 10:39:53;;;;;;;4.77;2.80;;;;;;;20.91;71.67;101070.03;5021245;28;20655;-75
2021/09/13 10:42:27;;;;;;;5.87;3.00;;;;;;;21.10;72.32;101073.22;5016827;28;20224;-75
2021/09/13 10:45:21;;;;;;;4.13;2.75;;;;;;;21.06;71.71;101073.53;5023549;28;20553;-75
2021/09/13 10:47:50;;;;;;;3.47;2.88;;;;;;;21.15;71.20;101075.59;5021194;28;20208;-75
2021/09/13 10:50:23;;;;;;;5.28;2.92;;;;;;;21.18;71.50;101070.97;5026713;28;20281;-75
2021/09/13 10:52:50;;;;;;;3.75;2.80;;;;;;;21.32;70.33;101071.88;5020709;28;20706;-75
2021/09/13 10:55:25;;;;;;;3.08;2.80;;;;;;;21.23;68.69;101080.41;5025837;28;20224;-75
2021/09/13 10:58:01;;;;;;;4.85;2.80;;;;;;;21.40;69.72;101082.00;5020881;28;20199;-75
2021/09/13 11:00:57;;;;;;;5.53;2.85;;;;;;;21.17;69.90;101082.50;5026954;28;20208;-75
2021/09/13 11:03:41;;;;;;;4.55;3.17;;;;;;;20.93;67.90;101087.56;5024330;28;20247;-75
2021/09/13 11:06:26;;;;;;;4.55;2.92;;;;;;;20.85;68.69;101084.53;5019347;28;20212;-75
2021/09/13 11:08:54;;;;;;;4.65;3.05;;;;;;;21.14;69.38;101080.06;5019591;28;20300;-75
2021/09/13 11:11:25;;;;;;;5.47;3.40;;;;;;;21.19;68.69;101087.72;5020836;28;20291;-75
2021/09/13 11:13:57;;;;;;;5.47;3.20;;;;;;;21.30;69.42;101089.66;5018647;28;20287;-75
2021/09/13 11:16:25;;;;;;;3.35;3.00;;;;;;;21.37;69.80;101083.91;5023530;28;20299;-75
2021/09/13 11:18:53;;;;;;;4.53;2.78;;;;;;;21.36;66.50;101084.00;5024967;28;20231;-75
2021/09/13 11:21:23;;;;;;;4.57;2.78;;;;;;;21.50;68.74;101085.78;5024427;28;20291;-75
2021/09/13 11:23:52;;;;;;;6.78;2.80;;;;;;;21.57;67.57;101089.75;5020736;28;20242;-76
2021/09/13 11:26:20;;;;;;;3.00;2.67;;;;;;;21.50;66.86;101091.94;5024319;28;20196;-75
2021/09/13 11:28:54;;;;;;;3.83;2.90;;;;;;;21.16;68.18;101082.63;5021968;28;20226;-75